createdAt,value
2022-12-17T00:00:00.687Z,37.90
2022-12-17T00:02:43.070Z,27.55
2022-12-17T00:05:28.163Z,37.70
2022-12-17T00:08:14.221Z,35.15
2022-12-17T00:10:56.892Z,25.13
2022-12-17T00:13:39.422Z,35.83
2022-12-17T00:16:22.588Z,51.90
2022-12-17T00:19:04.883Z,43.72
2022-12-17T00:21:49.755Z,38.05
2022-12-17T00:24:31.992Z,21.33
2022-12-17T00:27:14.271Z,18.05
2022-12-17T00:29:56.536Z,40.25
2022-12-17T00:32:41.325Z,46.35
2022-12-17T00:35:24.072Z,40.25
2022-12-17T00:38:08.959Z,44.67
2022-12-17T00:40:51.224Z,42.95
2022-12-17T00:43:34.883Z,50.83
2022-12-17T00:46:17.422Z,37.95
2022-12-17T00:49:00.221Z,38.53
2022-12-17T00:51:43.883Z,52.25
2022-12-17T00:54:29.163Z,27.70
2022-12-17T00:57:11.625Z,41.05
2022-12-17T00:59:53.947Z,44.78
2022-12-17T01:02:39.289Z,36.47
2022-12-17T01:05:22.547Z,31.50
2022-12-17T01:08:04.806Z,33.13
2022-12-17T01:10:49.878Z,42.33
2022-12-17T01:13:32.474Z,23.48
2022-12-17T01:16:18.893Z,32.60
2022-12-17T01:19:01.222Z,25.17
2022-12-17T01:21:43.560Z,27.08
2022-12-17T01:24:26.072Z,27.05
2022-12-17T01:27:11.027Z,27.90
2022-12-17T01:29:53.189Z,25.40
2022-12-17T01:32:35.460Z,29.58
2022-12-17T01:35:17.987Z,30.70
2022-12-17T01:38:00.984Z,22.55
2022-12-17T01:40:43.343Z,36.92
2022-12-17T01:43:28.948Z,30.88
2022-12-17T01:46:11.421Z,29.75
2022-12-17T01:48:56.637Z,31.52
2022-12-17T01:51:39.859Z,30.40
2022-12-17T01:54:22.360Z,35.42
2022-12-17T01:57:04.807Z,49.35
2022-12-17T01:59:54.173Z,42.67
2022-12-17T02:05:19.018Z,41.85
2022-12-17T02:08:09.979Z,41.28
2022-12-17T02:10:57.725Z,41.88
2022-12-17T02:13:46.595Z,45.90
2022-12-17T02:16:36.418Z,26.50
2022-12-17T02:19:24.334Z,41.85
2022-12-17T02:22:09.723Z,33.22
2022-12-17T02:24:58.756Z,40.75
2022-12-17T02:27:44.416Z,29.77
2022-12-17T02:30:26.968Z,47.00
2022-12-17T02:33:10.095Z,44.00
2022-12-17T02:35:56.860Z,31.67
2022-12-17T02:38:41.848Z,27.80
2022-12-17T02:41:27.929Z,37.65
2022-12-17T02:44:13.355Z,34.30
2022-12-17T02:46:57.150Z,41.05
2022-12-17T02:49:39.851Z,44.72
2022-12-17T02:52:23.539Z,35.42
2022-12-17T02:55:06.035Z,44.13
2022-12-17T02:57:53.646Z,40.22
2022-12-17T03:00:39.657Z,47.25
2022-12-17T03:03:22.468Z,39.97
2022-12-17T03:06:04.844Z,27.63
2022-12-17T03:08:47.278Z,37.58
2022-12-17T03:11:29.524Z,35.15
2022-12-17T03:14:11.802Z,41.38
2022-12-17T03:16:56.897Z,34.28
2022-12-17T03:19:39.178Z,34.22
2022-12-17T03:22:21.473Z,30.65
2022-12-17T03:25:03.759Z,28.15
2022-12-17T03:27:46.099Z,30.75
2022-12-17T03:30:31.074Z,24.38
2022-12-17T03:33:19.647Z,23.67
2022-12-17T03:36:02.058Z,25.25
2022-12-17T03:38:44.343Z,25.10
2022-12-17T03:41:26.610Z,26.33
2022-12-17T03:44:08.668Z,19.17
2022-12-17T03:46:51.083Z,27.08
2022-12-17T03:49:35.977Z,22.02
2022-12-17T03:52:18.298Z,22.77
2022-12-17T03:55:00.400Z,31.85
2022-12-17T03:57:42.679Z,20.50
2022-12-17T04:00:26.505Z,21.98
2022-12-17T04:03:09.038Z,19.10
2022-12-17T04:05:54.380Z,14.13
2022-12-17T04:08:36.728Z,17.38
2022-12-17T04:11:19.116Z,21.40
2022-12-17T04:14:01.611Z,21.58
2022-12-17T04:16:49.432Z,19.92
2022-12-17T04:19:31.803Z,17.95
2022-12-17T04:22:16.918Z,22.08
2022-12-17T04:24:59.218Z,19.98
2022-12-17T04:27:41.579Z,12.48
2022-12-17T04:30:24.934Z,22.10
2022-12-17T04:33:07.263Z,22.63
2022-12-17T04:35:49.530Z,18.33
2022-12-17T04:38:34.508Z,24.42
2022-12-17T04:41:16.841Z,22.10
2022-12-17T04:44:02.955Z,16.20
2022-12-17T04:46:47.059Z,15.63
2022-12-17T04:49:29.461Z,37.28
2022-12-17T04:52:11.891Z,18.20
2022-12-17T04:54:57.117Z,22.92
2022-12-17T04:57:39.462Z,30.05
2022-12-17T05:00:23.296Z,26.42
2022-12-17T05:03:17.504Z,25.50
2022-12-17T05:05:59.815Z,21.15
2022-12-17T05:08:51.012Z,24.05
2022-12-17T05:11:44.310Z,23.00
2022-12-17T05:14:26.589Z,21.73
2022-12-17T05:17:08.940Z,19.52
2022-12-17T05:19:51.244Z,21.08
2022-12-17T05:22:33.617Z,32.67
2022-12-17T05:25:15.896Z,17.60
2022-12-17T05:28:01.511Z,30.20
2022-12-17T05:30:43.792Z,24.48
2022-12-17T05:33:26.124Z,31.30
2022-12-17T05:36:08.415Z,30.33
2022-12-17T05:38:53.426Z,23.65
2022-12-17T05:41:35.776Z,28.08
2022-12-17T05:44:20.980Z,18.05
2022-12-17T05:47:03.305Z,33.65
2022-12-17T05:49:45.587Z,28.33
2022-12-17T05:52:42.616Z,26.65
2022-12-17T05:55:25.237Z,16.42
2022-12-17T05:58:07.547Z,22.65
2022-12-17T06:00:52.458Z,29.98
2022-12-17T06:03:35.111Z,21.33
2022-12-17T06:06:17.867Z,33.03
2022-12-17T06:09:00.186Z,17.58
2022-12-17T06:11:42.611Z,27.30
2022-12-17T06:14:24.946Z,19.10
2022-12-17T06:17:10.598Z,21.52
2022-12-17T06:19:52.876Z,20.95
2022-12-17T06:22:35.240Z,18.67
2022-12-17T06:25:17.528Z,22.25
2022-12-17T06:28:00.111Z,24.77
2022-12-17T06:30:42.398Z,19.73
2022-12-17T06:33:27.455Z,15.70
2022-12-17T06:36:10.920Z,18.65
2022-12-17T06:38:53.236Z,20.60
2022-12-17T06:41:41.411Z,18.23
2022-12-17T06:44:23.735Z,17.50
2022-12-17T06:47:06.132Z,18.13
2022-12-17T06:49:51.148Z,18.48
2022-12-17T06:52:33.399Z,24.10
2022-12-17T06:55:15.701Z,19.77
2022-12-17T06:57:57.966Z,18.85
2022-12-17T07:00:40.304Z,21.33
2022-12-17T07:03:26.401Z,21.02
2022-12-17T07:06:11.351Z,17.52
2022-12-17T07:08:53.640Z,23.75
2022-12-17T07:11:36.953Z,20.00
2022-12-17T07:14:19.320Z,20.00
2022-12-17T07:17:01.445Z,14.35
2022-12-17T07:19:43.682Z,19.20
2022-12-17T07:22:28.536Z,20.15
2022-12-17T07:25:10.838Z,19.95
2022-12-17T07:27:53.178Z,19.33
2022-12-17T07:30:35.452Z,15.75
2022-12-17T07:33:19.307Z,23.65
2022-12-17T07:36:01.671Z,22.52
2022-12-17T07:39:03.034Z,20.08
2022-12-17T07:41:45.311Z,19.63
2022-12-17T07:44:27.554Z,20.88
2022-12-17T07:47:09.860Z,20.48
2022-12-17T07:49:52.171Z,12.35
2022-12-17T07:52:34.503Z,18.67
2022-12-17T07:55:19.818Z,13.50
2022-12-17T07:58:02.133Z,16.15
2022-12-17T08:00:49.094Z,11.57
2022-12-17T08:03:31.818Z,21.85
2022-12-17T08:06:14.253Z,18.38
2022-12-17T08:08:56.532Z,22.35
2022-12-17T08:11:41.531Z,20.17
2022-12-17T08:14:23.848Z,20.23
2022-12-17T08:17:06.237Z,15.70
2022-12-17T08:19:48.636Z,16.38
2022-12-17T08:22:30.910Z,19.40
2022-12-17T08:25:13.240Z,18.42
2022-12-17T08:27:58.149Z,18.75
2022-12-17T08:30:40.678Z,16.08
2022-12-17T08:33:23.014Z,11.75
2022-12-17T08:36:08.642Z,12.57
2022-12-17T08:38:50.902Z,17.33
2022-12-17T08:41:33.193Z,14.57
2022-12-17T08:44:18.059Z,16.80
2022-12-17T08:47:00.371Z,14.93
2022-12-17T08:49:42.703Z,15.60
2022-12-17T08:52:28.024Z,17.73
2022-12-17T08:55:10.377Z,17.52
2022-12-17T08:57:52.660Z,16.15
2022-12-17T09:00:37.603Z,8.88
2022-12-17T09:03:20.084Z,15.25
2022-12-17T09:06:02.548Z,17.08
2022-12-17T09:08:45.031Z,15.63
2022-12-17T09:11:27.370Z,20.42
2022-12-17T09:14:09.658Z,19.23
2022-12-17T09:16:54.686Z,22.88
2022-12-17T09:19:37.015Z,18.15
2022-12-17T09:22:19.290Z,14.68
2022-12-17T09:25:01.638Z,21.20
2022-12-17T09:27:43.985Z,18.02
2022-12-17T09:30:27.564Z,20.42
2022-12-17T09:33:12.583Z,27.80
2022-12-17T09:35:55.303Z,23.58
2022-12-17T09:38:37.599Z,22.73
2022-12-17T09:41:32.326Z,23.55
2022-12-17T09:44:18.719Z,24.48
2022-12-17T09:47:06.822Z,23.45
2022-12-17T09:49:52.960Z,22.10
2022-12-17T09:52:38.544Z,21.50
2022-12-17T09:55:31.003Z,21.88
2022-12-17T09:58:13.562Z,25.52
2022-12-17T10:01:00.736Z,22.00
2022-12-17T10:03:44.748Z,20.23
2022-12-17T10:06:33.676Z,22.98
2022-12-17T10:09:29.695Z,14.68
2022-12-17T10:12:13.098Z,21.50
2022-12-17T10:14:55.368Z,20.73
2022-12-17T10:17:38.443Z,20.27
2022-12-17T10:20:30.444Z,21.38
2022-12-17T10:23:15.317Z,17.42
2022-12-17T10:26:20.507Z,16.75
2022-12-17T10:29:02.772Z,15.48
2022-12-17T10:31:45.924Z,18.20
2022-12-17T10:34:31.216Z,21.25
2022-12-17T10:37:13.678Z,16.38
2022-12-17T10:39:59.381Z,17.30
2022-12-17T10:42:43.121Z,17.45
2022-12-17T10:45:37.025Z,23.33
2022-12-17T10:48:25.652Z,20.45
2022-12-17T10:51:07.957Z,16.25
2022-12-17T10:53:50.275Z,19.05
2022-12-17T10:56:41.281Z,17.92
2022-12-17T10:59:27.363Z,19.60
2022-12-17T11:02:13.168Z,19.05
2022-12-17T11:05:15.429Z,24.02
2022-12-17T11:07:58.495Z,22.33
2022-12-17T11:10:44.538Z,22.98
2022-12-17T11:13:32.846Z,21.58
2022-12-17T11:16:15.978Z,19.00
2022-12-17T11:19:04.283Z,22.55
2022-12-17T11:21:49.242Z,19.48
2022-12-17T11:24:36.631Z,24.13
2022-12-17T11:27:21.953Z,19.33
2022-12-17T11:30:07.101Z,19.83
2022-12-17T11:33:00.160Z,19.13
2022-12-17T11:35:49.529Z,16.95
2022-12-17T11:38:45.228Z,19.75
2022-12-17T11:41:31.544Z,18.40
2022-12-17T11:44:18.543Z,24.77
2022-12-17T11:47:06.448Z,18.73
2022-12-17T11:49:53.467Z,19.98
2022-12-17T11:52:40.174Z,21.95
2022-12-17T11:55:31.714Z,17.92
2022-12-17T11:58:17.762Z,24.05
2022-12-17T12:01:07.505Z,21.90
2022-12-17T12:03:57.877Z,24.20
2022-12-17T12:06:49.023Z,20.60
2022-12-17T12:09:34.816Z,18.75
2022-12-17T12:12:22.993Z,21.92
2022-12-17T12:15:12.569Z,21.73
2022-12-17T12:17:58.943Z,14.70
2022-12-17T12:21:06.191Z,17.00
2022-12-17T12:23:55.958Z,19.33
2022-12-17T12:26:39.263Z,18.50
2022-12-17T12:29:30.916Z,19.75
2022-12-17T12:32:17.473Z,18.92
2022-12-17T12:35:00.655Z,20.75
2022-12-17T12:37:46.299Z,19.23
2022-12-17T12:40:32.165Z,19.38
2022-12-17T12:43:17.875Z,20.10
2022-12-17T12:46:05.832Z,18.45
2022-12-17T12:48:54.806Z,16.02
2022-12-17T12:51:40.056Z,18.73
2022-12-17T12:54:41.287Z,21.50
2022-12-17T12:57:41.861Z,22.52
2022-12-17T13:00:37.784Z,22.80
2022-12-17T13:03:30.460Z,21.30
2022-12-17T13:06:01.859Z,18.80
2022-12-17T13:08:31.721Z,22.80
2022-12-17T13:11:14.502Z,21.33
2022-12-17T13:13:56.222Z,21.75
2022-12-17T13:16:45.431Z,24.95
2022-12-17T13:19:23.741Z,23.90
2022-12-17T13:21:53.683Z,24.30
2022-12-17T13:24:27.878Z,24.67
2022-12-17T13:27:00.384Z,22.25
2022-12-17T13:29:32.318Z,26.55
2022-12-17T13:32:18.815Z,24.05
2022-12-17T13:35:10.316Z,20.92
2022-12-17T13:37:46.004Z,20.20
2022-12-17T13:40:24.972Z,25.27
2022-12-17T13:42:58.252Z,25.02
2022-12-17T13:45:29.874Z,20.50
2022-12-17T13:48:01.111Z,23.05
2022-12-17T13:50:35.613Z,19.42
2022-12-17T13:53:13.452Z,24.27
2022-12-17T13:55:43.629Z,18.52
2022-12-17T13:58:28.011Z,21.52
2022-12-17T14:01:08.257Z,11.90
2022-12-17T14:06:31.085Z,18.58
2022-12-17T14:09:01.523Z,18.65
2022-12-17T14:11:44.083Z,23.30
2022-12-17T14:14:33.512Z,17.10
2022-12-17T14:19:35.787Z,11.20
2022-12-17T14:22:05.786Z,18.60
2022-12-17T14:24:35.976Z,18.48
2022-12-17T14:27:05.965Z,23.20
2022-12-17T14:29:49.128Z,17.45
2022-12-17T14:32:27.160Z,19.58
2022-12-17T14:35:00.679Z,21.15
2022-12-17T14:37:31.858Z,21.23
2022-12-17T14:40:04.991Z,15.80
2022-12-17T14:42:38.433Z,18.30
2022-12-17T14:45:25.387Z,20.13
2022-12-17T14:47:56.696Z,18.60
2022-12-17T14:50:30.449Z,19.40
2022-12-17T14:53:01.846Z,18.60
2022-12-17T14:55:37.581Z,20.20
2022-12-17T14:58:25.560Z,16.38
2022-12-17T15:01:02.442Z,20.80
2022-12-17T15:03:36.224Z,17.83
2022-12-17T15:06:08.225Z,21.27
2022-12-17T15:08:40.077Z,21.65
2022-12-17T15:11:10.599Z,21.45
2022-12-17T15:13:40.659Z,18.23
2022-12-17T15:16:13.733Z,16.95
2022-12-17T15:18:43.608Z,18.02
2022-12-17T15:21:14.860Z,22.75
2022-12-17T15:23:46.709Z,20.25
2022-12-17T15:26:17.564Z,22.13
2022-12-17T15:28:48.672Z,23.38
2022-12-17T15:31:24.978Z,21.00
2022-12-17T15:33:56.669Z,21.35
2022-12-17T15:36:26.900Z,24.25
2022-12-17T15:38:56.839Z,15.45
2022-12-17T15:41:39.400Z,18.65
2022-12-17T15:44:09.271Z,21.45
2022-12-17T15:46:41.845Z,17.10
2022-12-17T15:49:11.775Z,19.88
2022-12-17T15:51:41.619Z,21.35
2022-12-17T15:54:11.548Z,18.42
2022-12-17T15:56:41.429Z,18.35
2022-12-17T15:59:11.376Z,21.35
2022-12-17T16:01:44.485Z,17.92
2022-12-17T16:04:21.543Z,30.30
2022-12-17T16:06:54.516Z,23.00
2022-12-17T16:09:27.173Z,25.65
2022-12-17T16:11:57.551Z,19.30
2022-12-17T16:14:27.547Z,21.42
2022-12-17T16:17:00.114Z,19.10
2022-12-17T16:19:30.042Z,17.83
2022-12-17T16:21:59.921Z,18.23
2022-12-17T16:24:29.801Z,18.10
2022-12-17T16:27:04.341Z,19.27
2022-12-17T16:29:34.739Z,17.98
2022-12-17T16:32:07.784Z,17.15
2022-12-17T16:34:37.729Z,17.73
2022-12-17T16:37:10.660Z,18.95
2022-12-17T16:39:40.603Z,17.02
2022-12-17T16:42:11.601Z,19.48
2022-12-17T16:44:41.569Z,17.65
2022-12-17T16:47:14.120Z,17.77
2022-12-17T16:49:44.104Z,19.15
2022-12-17T16:52:14.011Z,16.40
2022-12-17T16:54:43.916Z,17.20
2022-12-17T16:57:13.740Z,17.48
2022-12-17T16:59:43.696Z,17.85
2022-12-17T17:02:18.661Z,17.40
2022-12-17T17:04:48.742Z,15.18
2022-12-17T17:07:18.800Z,19.02
2022-12-17T17:09:48.677Z,15.48
2022-12-17T17:12:18.557Z,16.67
2022-12-17T17:14:48.421Z,17.05
2022-12-17T17:17:54.550Z,16.50
2022-12-17T17:20:11.897Z,20.58
2022-12-17T17:22:41.874Z,23.77
2022-12-17T17:25:12.243Z,22.35
2022-12-17T17:27:42.138Z,21.55
2022-12-17T17:30:13.733Z,22.70
2022-12-17T17:32:46.306Z,25.27
2022-12-17T17:35:16.531Z,22.30
2022-12-17T17:37:46.461Z,24.65
2022-12-17T17:40:17.033Z,19.15
2022-12-17T17:42:51.536Z,20.27
2022-12-17T17:45:22.866Z,25.08
2022-12-17T17:47:55.344Z,19.88
2022-12-17T17:50:25.235Z,19.65
2022-12-17T17:52:55.094Z,17.33
2022-12-17T17:55:25.058Z,16.67
2022-12-17T17:57:55.958Z,20.98
2022-12-17T18:00:25.890Z,15.48
2022-12-17T18:02:58.481Z,21.20
2022-12-17T18:05:28.564Z,20.27
2022-12-17T18:07:58.434Z,24.05
2022-12-17T18:10:29.200Z,20.48
2022-12-17T18:13:11.453Z,21.10
2022-12-17T18:15:41.390Z,24.33
2022-12-17T18:18:14.769Z,18.55
2022-12-17T18:20:44.880Z,18.52
2022-12-17T18:23:14.688Z,17.17
2022-12-17T18:25:44.547Z,25.45
2022-12-17T18:28:14.463Z,17.75
2022-12-17T18:30:44.407Z,16.02
2022-12-17T18:33:16.908Z,21.38
2022-12-17T18:35:46.800Z,17.35
2022-12-17T18:38:16.630Z,18.52
2022-12-17T18:40:46.832Z,14.50
2022-12-17T18:43:26.119Z,18.80
2022-12-17T18:45:56.124Z,16.83
2022-12-17T18:48:30.287Z,18.77
2022-12-17T18:51:07.442Z,23.75
2022-12-17T18:53:37.317Z,17.08
2022-12-17T18:56:11.081Z,13.90
2022-12-17T18:58:41.217Z,18.55
2022-12-17T19:01:11.183Z,19.17
2022-12-17T19:03:43.812Z,18.92
2022-12-17T19:06:13.901Z,26.55
2022-12-17T19:08:43.930Z,18.90
2022-12-17T19:11:19.799Z,12.73
2022-12-17T19:13:50.187Z,17.27
2022-12-17T19:16:22.198Z,18.25
2022-12-17T19:18:57.403Z,19.67
2022-12-17T19:21:28.068Z,18.40
2022-12-17T19:24:00.494Z,13.27
2022-12-17T19:26:30.670Z,11.98
2022-12-17T19:29:02.143Z,23.17
2022-12-17T19:31:34.302Z,22.08
2022-12-17T19:34:08.247Z,16.73
2022-12-17T19:36:39.182Z,17.50
2022-12-17T19:39:10.792Z,18.38
2022-12-17T19:41:40.715Z,22.90
2022-12-17T19:44:13.620Z,18.33
2022-12-17T19:46:43.767Z,17.67
2022-12-17T19:49:17.465Z,17.02
2022-12-17T19:51:47.691Z,18.40
2022-12-17T19:54:17.904Z,17.98
2022-12-17T19:56:47.900Z,17.58
2022-12-17T19:59:17.851Z,23.33
2022-12-17T20:01:49.322Z,16.65
2022-12-17T20:04:21.982Z,14.98
2022-12-17T20:06:51.934Z,17.00
2022-12-17T20:09:21.731Z,22.85
2022-12-17T20:11:51.587Z,18.05
2022-12-17T20:14:23.833Z,20.52
2022-12-17T20:16:55.946Z,13.65
2022-12-17T20:19:31.217Z,14.70
2022-12-17T20:22:01.985Z,17.65
2022-12-17T20:24:32.388Z,17.13
2022-12-17T20:27:02.528Z,16.08
2022-12-17T20:29:32.748Z,15.75
2022-12-17T20:32:04.085Z,18.63
2022-12-17T20:34:36.700Z,15.35
2022-12-17T20:37:06.653Z,14.40
2022-12-17T20:39:36.602Z,16.10
2022-12-17T20:42:07.593Z,14.57
2022-12-17T20:44:37.637Z,16.55
2022-12-17T20:47:07.674Z,15.90
2022-12-17T20:49:40.147Z,15.10
2022-12-17T20:52:10.135Z,14.75
2022-12-17T20:54:40.119Z,19.10
2022-12-17T20:57:10.007Z,17.52
2022-12-17T20:59:39.912Z,15.13
2022-12-17T21:02:10.036Z,16.25
2022-12-17T21:04:42.626Z,17.30
2022-12-17T21:07:12.577Z,23.00
2022-12-17T21:09:42.364Z,70.43
2022-12-17T21:12:13.645Z,25.48
2022-12-17T21:14:43.622Z,21.38
2022-12-17T21:17:14.838Z,14.75
2022-12-17T21:19:47.456Z,16.75
2022-12-17T21:22:17.533Z,13.32
2022-12-17T21:24:47.364Z,15.35
2022-12-17T21:27:17.335Z,14.00
2022-12-17T21:29:47.272Z,15.13
2022-12-17T21:32:17.137Z,17.98
2022-12-17T21:34:49.660Z,16.38
2022-12-17T21:37:19.691Z,16.92
2022-12-17T21:39:49.638Z,15.30
2022-12-17T21:42:31.878Z,17.02
2022-12-17T21:45:01.804Z,17.08
2022-12-17T21:47:31.850Z,15.80
2022-12-17T21:50:04.345Z,16.08
2022-12-17T21:52:34.249Z,16.05
2022-12-17T21:55:04.126Z,16.45
2022-12-17T21:57:33.913Z,14.25
2022-12-17T22:00:03.819Z,13.52
2022-12-17T22:02:34.313Z,12.93
2022-12-17T22:05:08.243Z,13.77
2022-12-17T22:07:42.414Z,15.95
2022-12-17T22:10:43.356Z,14.10
2022-12-17T22:13:20.317Z,11.85
2022-12-17T22:15:50.355Z,16.48
2022-12-17T22:18:20.269Z,13.85
2022-12-17T22:21:02.563Z,11.15
2022-12-17T22:23:33.036Z,13.98
2022-12-17T22:26:03.230Z,14.18
2022-12-17T22:28:33.071Z,13.82
2022-12-17T22:31:19.659Z,15.95
2022-12-17T22:34:18.820Z,13.10
2022-12-17T22:38:56.733Z,10.95
2022-12-17T22:44:30.962Z,13.35
2022-12-17T22:44:35.709Z,15.95
2022-12-17T22:45:26.620Z,15.27
2022-12-17T22:47:56.553Z,16.83
2022-12-17T22:50:28.669Z,15.80
2022-12-17T22:53:08.275Z,17.92
2022-12-17T22:55:38.584Z,40.05
2022-12-17T22:58:08.889Z,129.05
2022-12-17T23:00:39.271Z,257.65
2022-12-17T23:03:09.504Z,249.07
2022-12-17T23:05:39.595Z,149.80
2022-12-17T23:08:15.010Z,34.47
2022-12-17T23:10:45.075Z,16.23
2022-12-17T23:13:14.983Z,15.75
2022-12-17T23:15:44.863Z,19.83
2022-12-17T23:18:15.747Z,18.08
2022-12-17T23:20:45.567Z,20.48
2022-12-17T23:23:18.067Z,18.92
2022-12-17T23:25:47.966Z,18.15
2022-12-17T23:28:17.935Z,15.35
2022-12-17T23:30:47.754Z,16.45
2022-12-17T23:33:17.627Z,16.35
2022-12-17T23:35:47.562Z,16.42
2022-12-17T23:38:19.984Z,20.20
2022-12-17T23:40:49.904Z,22.40
2022-12-17T23:43:19.689Z,15.63
2022-12-17T23:45:49.472Z,19.33
2022-12-17T23:48:19.378Z,16.98
2022-12-17T23:50:49.194Z,15.68
2022-12-17T23:53:21.631Z,18.30
2022-12-17T23:55:52.021Z,16.98
2022-12-17T23:58:22.658Z,16.80
